Time;durP1;ratioP1;P1;durP2;ratioP2;P2;SDS_P1;SDS_P2;PMS_P1;PMS_P2;Temp;Humidity;BMP_temperature;BMP_pressure;BME280_temperature;BME280_humidity;BME280_pressure;Samples;Min_cycle;Max_cycle;Signal;HPM_P1;HPM_P2
2021/04/23 00:00:17;;;;;;;9.18;7.35;;;9.90;77.30;;;;;;6253623;22;20008;-94
2021/04/23 00:02:44;;;;;;;11.30;8.00;;;9.90;77.80;;;;;;6254875;22;20060;-95
2021/04/23 00:05:11;;;;;;;10.48;7.53;;;9.90;78.30;;;;;;6251417;22;20060;-95
2021/04/23 00:07:36;;;;;;;9.25;7.80;;;9.90;77.80;;;;;;6252234;22;19996;-95
2021/04/23 00:10:06;;;;;;;9.52;7.80;;;9.80;78.50;;;;;;6251057;22;20094;-94
2021/04/23 00:12:32;;;;;;;8.60;6.72;;;9.80;78.60;;;;;;6252097;22;20001;-94
2021/04/23 00:14:58;;;;;;;8.98;7.40;;;9.80;78.10;;;;;;6253375;22;20000;-96
2021/04/23 00:17:24;;;;;;;9.43;7.53;;;9.70;78.20;;;;;;6251955;22;20090;-94
2021/04/23 00:19:50;;;;;;;10.48;8.05;;;9.70;78.40;;;;;;6252360;22;20012;-96
2021/04/23 00:22:16;;;;;;;10.52;7.88;;;9.60;78.70;;;;;;6251263;23;20083;-95
2021/04/23 00:24:42;;;;;;;11.82;8.27;;;9.60;78.70;;;;;;6251467;22;20319;-94
2021/04/23 00:27:07;;;;;;;11.63;7.80;;;9.60;78.80;;;;;;6251098;22;20054;-94
2021/04/23 00:29:35;;;;;;;11.20;7.28;;;9.50;78.90;;;;;;6254082;22;20065;-95
2021/04/23 00:34:46;;;;;;;9.13;6.93;;;9.40;79.10;;;;;;6255258;23;20062;-94
2021/04/23 00:37:12;;;;;;;10.68;8.02;;;9.40;79.30;;;;;;6256682;22;19997;-95
2021/04/23 00:39:38;;;;;;;9.30;7.00;;;9.30;79.40;;;;;;6250659;22;20018;-95
2021/04/23 00:42:05;;;;;;;10.77;7.80;;;9.30;79.40;;;;;;6252440;22;20007;-94
2021/04/23 00:44:31;;;;;;;9.70;7.13;;;9.30;80.20;;;;;;6252759;22;20004;-95
2021/04/23 00:46:57;;;;;;;11.80;7.50;;;9.20;79.80;;;;;;6253490;22;20000;-94
2021/04/23 00:49:23;;;;;;;9.80;7.22;;;9.20;80.10;;;;;;6251176;22;20005;-95
2021/04/23 00:51:55;;;;;;;9.88;7.55;;;9.20;80.30;;;;;;6251727;22;20035;-95
2021/04/23 00:54:22;;;;;;;11.30;9.05;;;9.10;80.40;;;;;;6250264;22;19996;-95
2021/04/23 00:56:48;;;;;;;10.40;7.88;;;9.10;80.60;;;;;;6250204;22;20004;-95
2021/04/23 00:59:14;;;;;;;10.18;7.40;;;9.10;80.80;;;;;;6250817;22;20033;-93
2021/04/23 01:01:43;;;;;;;11.02;7.80;;;9.10;81.50;;;;;;6249875;22;20050;-95
2021/04/23 01:04:16;;;;;;;10.45;7.75;;;9.00;81.10;;;;;;6249758;22;20024;-94
2021/04/23 01:06:42;;;;;;;11.30;8.10;;;9.00;81.80;;;;;;6249449;23;20479;-95
2021/04/23 01:09:13;;;;;;;12.45;8.32;;;9.00;81.40;;;;;;6249922;22;20008;-95
2021/04/23 01:11:39;;;;;;;9.65;7.55;;;9.10;81.80;;;;;;6251402;22;20014;-94
2021/04/23 01:14:05;;;;;;;10.90;8.43;;;9.10;81.80;;;;;;6251961;22;20071;-94
2021/04/23 01:16:32;;;;;;;10.25;8.25;;;9.10;82.00;;;;;;6249462;22;20007;-95
2021/04/23 01:18:58;;;;;;;11.13;8.82;;;9.10;82.00;;;;;;6249941;22;20419;-95
2021/04/23 01:21:28;;;;;;;11.57;8.25;;;9.10;82.00;;;;;;6250171;22;20453;-93
2021/04/23 01:23:56;;;;;;;8.85;7.20;;;9.20;82.20;;;;;;6250507;23;20004;-94
2021/04/23 01:26:26;;;;;;;11.60;7.90;;;9.20;82.10;;;;;;6251900;22;20091;-95
2021/04/23 01:28:54;;;;;;;8.85;6.90;;;9.20;82.20;;;;;;6254846;23;20416;-95
2021/04/23 01:31:22;;;;;;;11.13;8.82;;;9.30;82.30;;;;;;6251571;22;20007;-95
2021/04/23 01:33:51;;;;;;;9.40;8.32;;;9.30;82.10;;;;;;6252188;22;20027;-94
2021/04/23 01:36:18;;;;;;;13.13;8.05;;;9.30;82.20;;;;;;6251169;22;20003;-95
2021/04/23 01:38:47;;;;;;;11.60;9.02;;;9.30;83.00;;;;;;6251194;22;20023;-94
2021/04/23 01:41:13;;;;;;;13.25;8.85;;;9.30;82.60;;;;;;6250759;22;19997;-95
2021/04/23 01:43:39;;;;;;;10.50;7.70;;;9.30;82.60;;;;;;6250012;22;20087;-96
2021/04/23 01:46:07;;;;;;;10.27;7.95;;;9.40;82.60;;;;;;6249704;22;20000;-94
2021/04/23 01:48:33;;;;;;;11.10;8.25;;;9.40;82.60;;;;;;6250519;22;20004;-95
2021/04/23 01:51:02;;;;;;;9.90;7.85;;;9.40;82.40;;;;;;6249929;22;20004;-95
2021/04/23 01:53:28;;;;;;;10.90;8.25;;;9.50;82.50;;;;;;6249547;22;20366;-95
2021/04/23 01:55:54;;;;;;;9.65;7.40;;;9.50;82.50;;;;;;6251498;22;20000;-94
2021/04/23 01:58:20;;;;;;;7.80;6.70;;;9.50;82.50;;;;;;6251796;22;20319;-94
2021/04/23 02:00:49;;;;;;;9.35;7.35;;;9.60;82.50;;;;;;6253893;22;19996;-94
2021/04/23 02:03:16;;;;;;;9.93;7.50;;;9.60;82.50;;;;;;6249885;22;20000;-95
2021/04/23 02:05:43;;;;;;;10.30;7.10;;;9.60;82.60;;;;;;6250319;22;20050;-94
2021/04/23 02:08:11;;;;;;;11.00;8.15;;;9.60;82.50;;;;;;6250253;22;20001;-95
2021/04/23 02:10:41;;;;;;;11.20;8.20;;;9.60;82.50;;;;;;6256449;22;20000;-94
2021/04/23 02:13:07;;;;;;;11.98;9.35;;;9.60;82.70;;;;;;6258424;22;20000;-94
2021/04/23 02:15:34;;;;;;;13.07;9.88;;;9.60;82.60;;;;;;6254503;22;20003;-95
2021/04/23 02:18:00;;;;;;;16.50;11.23;;;9.60;82.90;;;;;;6252008;22;20058;-94
2021/04/23 02:20:32;;;;;;;14.18;10.43;;;9.70;83.00;;;;;;6252449;22;20150;-94
2021/04/23 02:22:59;;;;;;;13.30;10.68;;;9.60;83.00;;;;;;6252224;22;20004;-94
2021/04/23 02:25:27;;;;;;;15.88;11.52;;;9.70;83.10;;;;;;6250281;22;20000;-95
2021/04/23 02:27:53;;;;;;;14.43;10.20;;;9.60;83.20;;;;;;6249352;22;20367;-94
2021/04/23 02:30:25;;;;;;;12.23;8.75;;;9.70;83.40;;;;;;6249473;22;20100;-94
2021/04/23 02:32:52;;;;;;;14.00;9.38;;;9.70;83.50;;;;;;6251215;23;20295;-94
2021/04/23 02:35:20;;;;;;;11.23;8.80;;;9.70;83.80;;;;;;6250733;22;20000;-95
2021/04/23 02:37:46;;;;;;;11.35;9.27;;;9.70;83.60;;;;;;6250390;22;20081;-94
2021/04/23 02:40:17;;;;;;;12.20;8.98;;;9.70;83.60;;;;;;6250235;22;20000;-94
2021/04/23 02:42:44;;;;;;;12.25;9.43;;;9.70;83.60;;;;;;6249715;23;20000;-94
2021/04/23 02:45:13;;;;;;;11.77;8.70;;;9.70;83.70;;;;;;6249170;22;20031;-95
2021/04/23 02:47:40;;;;;;;12.48;10.23;;;9.70;83.80;;;;;;6251295;22;20004;-95
2021/04/23 02:50:14;;;;;;;11.98;9.55;;;9.70;84.30;;;;;;6249514;22;20319;-94
2021/04/23 02:52:40;;;;;;;15.52;11.30;;;9.70;84.30;;;;;;6252540;23;20004;-94
2021/04/23 02:55:08;;;;;;;14.23;10.23;;;9.70;84.60;;;;;;6253923;22;19997;-94
2021/04/23 02:57:34;;;;;;;13.65;11.45;;;9.70;84.90;;;;;;6254549;22;20416;-95
2021/04/23 02:59:59;;;;;;;15.65;11.98;;;9.70;84.90;;;;;;6251181;22;20011;-95
2021/04/23 03:02:25;;;;;;;15.75;11.20;;;9.80;85.20;;;;;;6251463;22;20001;-95
2021/04/23 03:04:51;;;;;;;15.85;12.43;;;9.70;85.10;;;;;;6252366;22;19997;-94
2021/04/23 03:07:21;;;;;;;15.23;12.10;;;9.70;85.30;;;;;;6252038;22;20404;-95
2021/04/23 03:09:48;;;;;;;16.00;12.13;;;9.70;85.30;;;;;;6250811;22;20011;-95
2021/04/23 03:12:14;;;;;;;18.88;11.82;;;9.80;85.50;;;;;;6251200;22;20370;-95
2021/04/23 03:14:40;;;;;;;13.68;10.80;;;9.80;85.50;;;;;;6274006;22;19992;-93
2021/04/23 03:17:06;;;;;;;14.77;11.38;;;9.80;85.50;;;;;;6273377;22;20014;-96
2021/04/23 03:19:32;;;;;;;17.88;12.60;;;9.80;85.60;;;;;;6274119;22;19992;-93
2021/04/23 03:21:59;;;;;;;19.25;13.77;;;9.80;85.70;;;;;;6260785;22;20008;-95
2021/04/23 03:24:25;;;;;;;18.60;13.10;;;9.80;85.80;;;;;;6255682;22;20008;-95
2021/04/23 03:26:51;;;;;;;20.40;14.00;;;9.80;85.90;;;;;;6253716;22;20380;-95
2021/04/23 03:29:17;;;;;;;15.93;12.02;;;9.80;86.00;;;;;;6252880;22;20426;-94
2021/04/23 03:31:44;;;;;;;18.80;13.23;;;9.80;85.90;;;;;;6253558;22;20000;-95
2021/04/23 03:34:10;;;;;;;14.50;10.57;;;9.80;86.10;;;;;;6252689;23;20011;-95
2021/04/23 03:36:36;;;;;;;14.13;11.00;;;9.80;85.90;;;;;;6255802;22;20010;-94
2021/04/23 03:39:06;;;;;;;13.77;10.70;;;9.80;86.00;;;;;;6256503;22;20423;-95
2021/04/23 03:41:33;;;;;;;12.82;10.70;;;9.80;86.10;;;;;;6252346;22;20000;-96
2021/04/23 03:44:00;;;;;;;16.05;11.65;;;9.90;86.20;;;;;;6252989;22;20008;-93
2021/04/23 03:46:27;;;;;;;19.00;13.75;;;9.90;86.20;;;;;;6253074;22;20007;-93
2021/04/23 03:48:53;;;;;;;16.35;12.35;;;9.90;86.10;;;;;;6254104;22;20004;-95
2021/04/23 03:51:20;;;;;;;18.77;14.15;;;10.00;86.10;;;;;;6253475;22;20007;-94
2021/04/23 03:53:47;;;;;;;18.25;13.57;;;10.00;86.10;;;;;;6253818;22;20308;-96
2021/04/23 03:56:15;;;;;;;16.80;12.35;;;10.10;86.10;;;;;;6254023;22;20004;-93
2021/04/23 03:58:42;;;;;;;20.98;13.77;;;10.10;86.00;;;;;;6255688;22;20000;-94
2021/04/23 04:01:11;;;;;;;18.75;13.02;;;10.10;86.00;;;;;;6259453;22;19996;-95
2021/04/23 04:03:38;;;;;;;21.02;16.20;;;10.20;86.10;;;;;;6263264;22;20060;-95
2021/04/23 04:06:05;;;;;;;22.05;14.55;;;10.10;86.30;;;;;;6260933;22;19997;-94
2021/04/23 04:08:32;;;;;;;16.83;12.23;;;10.20;86.10;;;;;;6252217;22;20083;-94
2021/04/23 04:10:59;;;;;;;19.95;14.73;;;10.20;86.00;;;;;;6251737;22;20022;-93
2021/04/23 04:13:25;;;;;;;19.38;13.75;;;10.20;86.20;;;;;;6253566;22;20027;-95
2021/04/23 04:15:51;;;;;;;19.58;14.07;;;10.20;86.10;;;;;;6253087;22;20000;-93
2021/04/23 04:18:17;;;;;;;20.38;15.13;;;10.20;86.10;;;;;;6251262;22;20004;-96
2021/04/23 04:20:46;;;;;;;18.85;14.00;;;10.20;86.30;;;;;;6255524;22;20016;-95
2021/04/23 04:23:15;;;;;;;20.17;16.02;;;10.20;86.30;;;;;;6256007;22;20412;-95
2021/04/23 04:25:42;;;;;;;18.33;15.32;;;10.20;86.40;;;;;;6252019;22;20007;-96
2021/04/23 04:28:09;;;;;;;22.67;14.95;;;10.20;86.40;;;;;;6253701;22;20292;-94
2021/04/23 04:30:35;;;;;;;18.55;14.63;;;10.20;86.50;;;;;;6253005;22;20008;-94
2021/04/23 04:33:02;;;;;;;19.63;15.80;;;10.10;86.70;;;;;;6255385;22;20396;-93
2021/04/23 04:35:29;;;;;;;18.08;13.65;;;10.10;86.50;;;;;;6253901;22;20000;-94
2021/04/23 04:37:56;;;;;;;20.05;14.98;;;10.10;86.30;;;;;;6250726;22;20000;-95
2021/04/23 04:40:24;;;;;;;20.30;16.05;;;10.10;86.30;;;;;;6251089;22;20066;-95
2021/04/23 04:42:50;;;;;;;26.70;18.70;;;10.00;86.20;;;;;;6250915;22;20007;-95
2021/04/23 04:45:20;;;;;;;20.25;14.85;;;9.90;86.50;;;;;;6251084;22;20419;-95
2021/04/23 04:47:47;;;;;;;18.88;15.75;;;9.90;86.50;;;;;;6251825;22;19997;-94
2021/04/23 04:50:19;;;;;;;22.30;16.88;;;9.80;86.70;;;;;;6251751;22;20007;-94
2021/04/23 04:52:46;;;;;;;18.70;14.77;;;9.80;86.80;;;;;;6254379;23;20004;-94
2021/04/23 04:55:14;;;;;;;18.45;14.63;;;9.80;87.20;;;;;;6254373;22;20366;-95
2021/04/23 04:57:40;;;;;;;19.90;14.18;;;9.90;87.50;;;;;;6253975;23;20007;-95
2021/04/23 05:00:11;;;;;;;19.00;13.63;;;10.00;87.80;;;;;;6254328;22;19996;-95
2021/04/23 05:02:37;;;;;;;18.88;13.45;;;10.10;87.70;;;;;;6257179;22;20026;-95
2021/04/23 05:05:06;;;;;;;20.08;15.23;;;10.30;87.70;;;;;;6261108;22;20016;-94
2021/04/23 05:07:32;;;;;;;17.08;13.55;;;10.50;87.40;;;;;;6258655;22;20065;-94
2021/04/23 05:09:58;;;;;;;20.38;14.88;;;10.60;87.10;;;;;;6259080;22;20090;-94
2021/04/23 05:12:24;;;;;;;17.35;13.57;;;10.70;87.00;;;;;;6254632;22;20011;-93
2021/04/23 05:14:51;;;;;;;17.67;13.23;;;10.80;86.80;;;;;;6256263;22;20019;-93
2021/04/23 05:17:17;;;;;;;18.00;13.18;;;11.00;87.00;;;;;;6259171;22;20060;-93
2021/04/23 05:19:43;;;;;;;17.85;14.07;;;11.20;87.00;;;;;;6253376;22;20018;-92
2021/04/23 05:22:09;;;;;;;16.52;12.90;;;11.40;86.30;;;;;;6255561;22;20023;-95
2021/04/23 05:24:34;;;;;;;15.93;12.90;;;11.50;85.70;;;;;;6254008;22;20023;-93
2021/04/23 05:27:00;;;;;;;16.63;12.73;;;11.60;85.30;;;;;;6253129;22;20000;-94
2021/04/23 05:29:26;;;;;;;16.05;12.77;;;11.70;84.90;;;;;;6255334;22;20055;-94
2021/04/23 05:31:52;;;;;;;18.05;12.27;;;11.70;84.30;;;;;;6257092;22;20034;-95
2021/04/23 05:34:18;;;;;;;16.30;13.05;;;11.70;84.20;;;;;;6255403;22;20004;-94
2021/04/23 05:36:46;;;;;;;16.23;12.82;;;11.80;84.30;;;;;;6257185;22;20019;-94
2021/04/23 05:39:12;;;;;;;17.65;14.15;;;11.80;84.20;;;;;;6257459;22;20008;-95
2021/04/23 05:44:32;;;;;;;18.37;13.37;;;11.80;83.60;;;;;;6265882;22;20004;-95
2021/04/23 05:46:58;;;;;;;15.82;11.93;;;11.80;83.40;;;;;;6265429;22;20006;-94
2021/04/23 05:49:24;;;;;;;18.15;13.73;;;11.80;83.50;;;;;;6263630;22;20043;-94
2021/04/23 05:51:49;;;;;;;16.95;13.10;;;11.90;83.90;;;;;;6264197;22;20058;-94
2021/04/23 05:54:15;;;;;;;17.33;13.25;;;12.00;84.10;;;;;;6263659;22;20370;-93
2021/04/23 05:56:41;;;;;;;21.95;16.35;;;12.10;84.30;;;;;;6260682;22;20079;-95
2021/04/23 05:59:09;;;;;;;18.48;13.52;;;12.10;83.70;;;;;;6265137;22;20084;-95
2021/04/23 06:01:45;;;;;;;17.60;14.25;;;12.20;83.70;;;;;;6268856;22;20023;-94
2021/04/23 06:04:13;;;;;;;19.08;14.32;;;12.30;83.50;;;;;;6266815;23;20458;-95
2021/04/23 06:06:44;;;;;;;14.82;12.85;;;12.30;83.10;;;;;;6263850;22;20099;-94
2021/04/23 06:09:14;;;;;;;19.42;14.80;;;12.40;83.10;;;;;;6263607;23;20020;-94
2021/04/23 06:11:43;;;;;;;19.48;15.98;;;12.30;82.90;;;;;;6262477;23;20050;-94
2021/04/23 06:14:12;;;;;;;17.08;13.70;;;12.30;82.90;;;;;;6261481;22;20031;-95
2021/04/23 06:16:38;;;;;;;19.88;14.45;;;12.40;83.30;;;;;;6256248;22;20019;-95
2021/04/23 06:19:04;;;;;;;19.75;15.55;;;12.50;83.60;;;;;;6252967;22;19997;-93
2021/04/23 06:21:32;;;;;;;16.42;12.55;;;12.60;83.00;;;;;;6250599;22;20443;-95
2021/04/23 06:23:58;;;;;;;16.92;12.68;;;12.70;82.70;;;;;;6250714;22;20004;-94
2021/04/23 06:26:24;;;;;;;18.15;13.43;;;12.70;82.40;;;;;;6252713;22;20374;-93
2021/04/23 06:28:49;;;;;;;17.58;14.02;;;12.70;82.30;;;;;;6253983;22;20051;-93
2021/04/23 06:31:18;;;;;;;14.85;11.77;;;12.70;82.00;;;;;;6260919;22;20327;-94
2021/04/23 06:33:51;;;;;;;16.08;12.88;;;12.80;82.10;;;;;;6258993;22;19996;-94
2021/04/23 06:36:19;;;;;;;13.30;11.60;;;12.80;82.10;;;;;;6255655;23;20103;-95
2021/04/23 06:38:45;;;;;;;13.40;11.57;;;12.80;82.10;;;;;;6257563;22;20030;-95
2021/04/23 06:41:12;;;;;;;15.50;12.30;;;12.80;82.10;;;;;;6259204;22;20000;-94
2021/04/23 06:43:38;;;;;;;15.13;12.48;;;12.90;82.20;;;;;;6255466;22;20450;-94
2021/04/23 06:46:04;;;;;;;15.13;11.25;;;12.90;81.40;;;;;;6256359;22;20107;-94
2021/04/23 06:48:32;;;;;;;14.80;12.02;;;12.90;81.40;;;;;;6256519;22;20060;-94
2021/04/23 06:50:59;;;;;;;19.48;13.65;;;13.00;81.60;;;;;;6259891;22;20000;-93
2021/04/23 06:53:26;;;;;;;16.55;13.32;;;13.00;80.60;;;;;;6254384;22;20053;-94
2021/04/23 06:55:52;;;;;;;16.80;12.90;;;13.10;80.40;;;;;;6230812;23;20000;-95
2021/04/23 06:58:20;;;;;;;14.70;11.63;;;13.10;80.10;;;;;;6263100;22;20056;-95
2021/04/23 07:00:47;;;;;;;14.27;11.52;;;13.10;79.70;;;;;;6261496;22;20020;-95
2021/04/23 07:03:22;;;;;;;16.67;12.73;;;13.20;79.70;;;;;;6254178;22;20024;-95
2021/04/23 07:05:49;;;;;;;15.88;12.55;;;13.20;79.10;;;;;;6293826;22;20102;-92
2021/04/23 07:08:15;;;;;;;18.85;13.07;;;13.30;78.80;;;;;;6293355;22;20082;-94
2021/04/23 07:11:11;;;;;;;14.90;12.23;;;13.30;78.50;;;;;;6299139;22;20003;-94
2021/04/23 07:14:02;;;;;;;14.18;12.57;;;13.30;77.50;;;;;;6300860;22;20016;-95
2021/04/23 07:16:30;;;;;;;13.93;11.13;;;13.30;77.50;;;;;;6286199;22;20004;-94
2021/04/23 07:21:47;;;;;;;11.38;9.73;;;13.30;77.60;;;;;;6273956;22;20023;-95
2021/04/23 07:24:45;;;;;;;13.00;10.43;;;13.30;77.70;;;;;;6299513;22;20007;-94
2021/04/23 07:27:34;;;;;;;13.25;11.45;;;13.40;76.90;;;;;;6259098;22;20067;-94
2021/04/23 07:30:03;;;;;;;13.02;11.20;;;13.50;76.40;;;;;;6270772;22;20024;-94
2021/04/23 07:32:44;;;;;;;15.63;13.27;;;13.50;76.40;;;;;;6272350;22;19984;-96
2021/04/23 07:35:13;;;;;;;16.55;13.05;;;13.50;75.50;;;;;;6271136;22;20006;-95
2021/04/23 07:37:42;;;;;;;15.43;10.88;;;13.10;73.80;;;;;;6271086;22;20291;-94
2021/04/23 07:40:12;;;;;;;16.65;9.57;;;12.70;74.30;;;;;;6267785;22;19999;-94
2021/04/23 07:42:47;;;;;;;13.73;9.55;;;12.40;75.30;;;;;;6294784;22;19996;-95
2021/04/23 07:45:17;;;;;;;12.23;10.48;;;12.20;75.40;;;;;;6246711;22;20004;-94
2021/04/23 07:48:09;;;;;;;11.45;9.55;;;12.00;75.70;;;;;;6268666;22;20007;-94
2021/04/23 07:50:48;;;;;;;12.38;8.38;;;12.00;75.80;;;;;;6269977;22;20011;-93
2021/04/23 07:53:41;;;;;;;12.10;9.60;;;12.00;75.60;;;;;;6267613;22;19999;-94
2021/04/23 07:56:41;;;;;;;10.85;8.43;;;12.10;74.20;;;;;;6214312;22;20003;-94
2021/04/23 07:59:10;;;;;;;11.10;8.07;;;12.00;74.80;;;;;;6275715;22;19996;-95
2021/04/23 08:02:02;;;;;;;11.50;8.10;;;12.10;75.00;;;;;;6271531;22;20008;-95
2021/04/23 08:04:48;;;;;;;9.68;8.65;;;12.20;74.20;;;;;;6291712;22;20087;-95
2021/04/23 08:07:32;;;;;;;;;;;;;;;;;;;;;
2021/04/23 08:10:03;;;;;;;12.38;8.27;;;12.40;72.50;;;;;;6294491;22;20008;-96
2021/04/23 08:12:32;;;;;;;10.80;8.40;;;12.20;73.00;;;;;;6292243;22;20015;-95
2021/04/23 08:14:58;;;;;;;11.05;8.30;;;12.20;73.20;;;;;;6289075;22;20050;-91
2021/04/23 08:17:25;;;;;;;9.15;7.32;;;12.30;72.80;;;;;;6283118;22;20000;-93
2021/04/23 08:20:14;;;;;;;12.43;8.82;;;12.20;72.80;;;;;;6277468;22;20083;-93
2021/04/23 08:22:52;;;;;;;;;;;;;;;;;;;;;
2021/04/23 08:25:28;;;;;;;15.48;8.68;;;12.00;72.30;;;;;;6297192;22;20002;-94
2021/04/23 08:27:54;;;;;;;11.73;8.55;;;11.80;72.50;;;;;;6272348;22;20008;-94
2021/04/23 08:30:25;;;;;;;12.02;8.88;;;11.60;72.90;;;;;;6270374;22;20014;-93
2021/04/23 08:32:55;;;;;;;10.75;7.85;;;11.50;73.10;;;;;;6260600;22;20881;-95
2021/04/23 08:35:27;;;;;;;13.77;9.18;;;11.40;73.70;;;;;;6297215;22;20000;-94
2021/04/23 08:37:55;;;;;;;14.68;10.05;;;11.30;73.80;;;;;;6297070;22;20007;-94
2021/04/23 08:40:32;;;;;;;13.45;9.25;;;11.20;74.30;;;;;;6300478;22;20000;-93
2021/04/23 08:45:40;;;;;;;13.27;8.35;;;11.20;74.10;;;;;;6267718;22;20033;-94
2021/04/23 08:48:32;;;;;;;11.18;7.72;;;11.20;73.50;;;;;;6281136;22;20146;-93
2021/04/23 08:51:15;;;;;;;13.52;8.90;;;11.30;73.50;;;;;;6264778;22;20027;-93
2021/04/23 08:54:03;;;;;;;12.80;7.97;;;11.30;72.90;;;;;;6271499;22;20008;-93
2021/04/23 08:56:31;;;;;;;11.70;7.80;;;11.30;73.10;;;;;;6266298;23;20009;-93
2021/04/23 08:59:05;;;;;;;12.40;7.88;;;11.20;73.00;;;;;;6212848;23;20009;-94
2021/04/23 09:01:31;;;;;;;10.30;7.72;;;11.40;73.30;;;;;;6258275;23;20000;-93
2021/04/23 09:03:59;;;;;;;12.27;7.82;;;11.50;72.70;;;;;;6226648;23;20011;-91
2021/04/23 09:06:27;;;;;;;10.20;7.50;;;11.50;72.30;;;;;;6228350;23;20052;-90
2021/04/23 09:08:56;;;;;;;10.90;7.72;;;11.40;72.40;;;;;;6250215;23;20009;-89
2021/04/23 09:11:30;;;;;;;10.57;8.07;;;11.30;72.70;;;;;;6250612;23;20067;-90
2021/04/23 09:14:02;;;;;;;8.90;6.10;;;11.20;72.80;;;;;;6250330;22;20068;-91
2021/04/23 09:17:00;;;;;;;9.88;7.25;;;11.10;73.30;;;;;;6255273;22;20399;-92
2021/04/23 09:19:34;;;;;;;13.52;8.65;;;11.00;73.00;;;;;;6250248;23;20019;-91
2021/04/23 09:22:19;;;;;;;10.05;7.57;;;10.80;73.40;;;;;;6238860;23;20012;-90
2021/04/23 09:25:01;;;;;;;9.38;6.60;;;10.70;74.00;;;;;;6235953;23;20008;-92
2021/04/23 09:27:49;;;;;;;10.63;6.70;;;10.60;74.40;;;;;;6236353;23;20028;-91
2021/04/23 09:30:42;;;;;;;10.20;7.60;;;10.60;74.50;;;;;;6210077;23;20024;-90
2021/04/23 09:33:33;;;;;;;8.55;6.93;;;10.70;74.60;;;;;;6224129;23;20005;-91
2021/04/23 09:35:59;;;;;;;9.40;7.30;;;10.60;74.40;;;;;;6220910;23;20001;-90
2021/04/23 09:38:34;;;;;;;8.95;7.35;;;10.50;74.80;;;;;;6218163;23;20001;-91
2021/04/23 09:41:35;;;;;;;9.75;6.97;;;10.40;75.40;;;;;;6218041;23;20008;-95
2021/04/23 09:44:29;;;;;;;9.55;6.63;;;10.40;75.30;;;;;;6197387;23;20008;-95
2021/04/23 09:47:36;;;;;;;6.78;5.97;;;10.50;75.40;;;;;;6211574;23;20001;-95
2021/04/23 09:50:41;;;;;;;10.57;8.07;;;10.70;75.40;;;;;;6219382;23;20067;-93
2021/04/23 09:53:53;;;;;;;9.73;7.65;;;10.70;74.60;;;;;;6167163;23;20013;-94
2021/04/23 09:57:12;;;;;;;;;;;;;;;;;;;;;
2021/04/23 10:00:17;;;;;;;9.88;6.82;;;10.60;74.70;;;;;;6218066;23;20071;-93
2021/04/23 10:03:01;;;;;;;10.63;7.37;;;10.60;74.80;;;;;;6217224;23;20416;-93
2021/04/23 10:06:16;;;;;;;10.18;8.38;;;10.70;74.30;;;;;;6218299;23;20000;-91
2021/04/23 10:08:47;;;;;;;11.48;7.38;;;10.70;74.60;;;;;;6218907;23;20008;-91
2021/04/23 10:11:55;;;;;;;11.07;7.75;;;10.80;74.70;;;;;;6191681;23;20071;-94
2021/04/23 10:14:53;;;;;;;9.90;7.90;;;10.80;74.30;;;;;;6218495;23;20420;-94
2021/04/23 10:17:43;;;;;;;8.23;6.80;;;10.90;74.10;;;;;;6191788;23;20005;-93
2021/04/23 10:20:21;;;;;;;9.30;7.13;;;11.00;74.50;;;;;;6191984;23;19997;-94
2021/04/23 10:22:56;;;;;;;11.63;7.95;;;11.10;73.70;;;;;;6218981;23;20013;-93
2021/04/23 10:25:34;;;;;;;9.00;7.10;;;11.20;73.20;;;;;;6218551;23;20447;-94
2021/04/23 10:28:26;;;;;;;8.20;6.75;;;11.30;73.20;;;;;;6191461;23;20004;-92
2021/04/23 10:31:19;;;;;;;8.85;6.18;;;11.40;72.40;;;;;;6213448;23;20036;-92
2021/04/23 10:34:08;;;;;;;11.05;6.38;;;11.50;72.60;;;;;;6218475;23;20032;-93
2021/04/23 10:36:38;;;;;;;11.45;6.97;;;11.60;70.80;;;;;;6211206;23;19997;-91
2021/04/23 10:39:06;;;;;;;7.10;5.75;;;11.50;70.50;;;;;;6191113;23;20000;-90
2021/04/23 10:45:13;;;;;;;;;;;;;;;;;;;;;
2021/04/23 10:48:18;;;;;;;8.50;5.68;;;11.40;71.10;;;;;;6202190;23;20028;-94
2021/04/23 10:51:45;;;;;;;8.68;5.78;;;11.40;71.40;;;;;;6107993;23;20420;-94
2021/04/23 10:53:54;;;;;;;7.88;5.55;;;11.50;71.60;;;;;;6107947;23;20041;-94
2021/04/23 10:57:02;;;;;;;7.25;5.82;;;11.70;70.20;;;;;;6195102;23;20369;-95
2021/04/23 11:02:43;;;;;;;7.25;4.80;;;11.70;69.50;;;;;;6203725;23;20001;-94
2021/04/23 11:05:41;;;;;;;6.90;5.30;;;11.70;69.60;;;;;;6172725;23;20008;-93
2021/04/23 11:08:20;;;;;;;10.75;5.15;;;11.60;69.20;;;;;;6194092;23;20375;-95
2021/04/23 11:11:15;;;;;;;7.22;4.60;;;11.40;69.70;;;;;;6193467;23;20040;-93
2021/04/23 11:13:53;;;;;;;6.63;4.88;;;11.20;70.20;;;;;;6193078;23;19997;-95
2021/04/23 11:16:40;;;;;;;7.80;5.10;;;11.10;70.60;;;;;;6218921;23;20080;-94
2021/04/23 11:19:25;;;;;;;6.00;4.93;;;11.00;70.80;;;;;;6169353;23;20016;-94
2021/04/23 11:22:21;;;;;;;5.53;4.88;;;10.80;71.20;;;;;;6194247;23;19997;-94
2021/04/23 11:25:18;;;;;;;4.63;3.83;;;10.70;71.80;;;;;;6192745;23;20024;-94
2021/04/23 11:32:09;;;;;;;8.57;5.25;;;10.40;72.30;;;;;;6147520;23;20040;-91
2021/04/23 11:34:56;;;;;;;7.28;4.93;;;10.40;72.30;;;;;;6192446;23;20001;-93
2021/04/23 11:37:44;;;;;;;6.43;4.65;;;10.30;72.70;;;;;;6192424;23;20001;-92
2021/04/23 11:40:39;;;;;;;5.05;4.20;;;10.20;73.40;;;;;;6195490;23;20008;-93
2021/04/23 11:43:05;;;;;;;;;;;10.30;73.50;;;;;;6189751;23;20008;-92
2021/04/23 11:45:36;;;;;;;5.10;4.20;;;10.40;73.70;;;;;;6193534;23;19900;-95
2021/04/23 11:48:23;;;;;;;5.05;4.20;;;10.50;73.60;;;;;;6168905;23;20086;-96
2021/04/23 11:50:52;;;;;;;5.05;4.18;;;10.70;73.40;;;;;;6189535;23;20120;-94
2021/04/23 11:53:21;;;;;;;5.70;4.72;;;11.00;72.80;;;;;;6187914;23;20424;-95
2021/04/23 11:55:59;;;;;;;7.47;5.07;;;11.20;72.00;;;;;;6167646;23;20016;-93
2021/04/23 11:58:26;;;;;;;8.10;5.25;;;11.30;71.20;;;;;;6188432;23;20032;-94
2021/04/23 12:01:12;;;;;;;8.05;5.38;;;11.40;71.20;;;;;;6190375;23;20001;-93
2021/04/23 12:03:46;;;;;;;5.57;4.63;;;11.50;70.80;;;;;;6188241;23;20002;-93
2021/04/23 12:06:33;;;;;;;7.13;5.43;;;11.50;70.40;;;;;;6139773;23;20423;-93
2021/04/23 12:09:23;;;;;;;5.13;3.83;;;11.40;69.30;;;;;;6187671;23;20008;-93
2021/04/23 12:12:19;;;;;;;7.03;4.88;;;11.30;70.40;;;;;;6185589;23;20005;-94
2021/04/23 12:14:58;;;;;;;5.32;3.75;;;11.10;71.00;;;;;;6164178;23;20005;-94
2021/04/23 12:17:46;;;;;;;5.47;4.22;;;11.10;71.50;;;;;;6163698;23;20512;-93
2021/04/23 12:20:45;;;;;;;5.45;4.50;;;11.00;71.60;;;;;;6165592;23;20016;-95
2021/04/23 12:23:30;;;;;;;5.05;4.28;;;10.90;72.00;;;;;;6220429;23;20432;-95
2021/04/23 12:26:06;;;;;;;4.85;3.92;;;10.80;72.30;;;;;;6220899;23;20091;-95
2021/04/23 12:28:51;;;;;;;4.75;4.28;;;10.70;72.60;;;;;;6219666;23;20001;-92
2021/04/23 12:31:39;;;;;;;4.30;3.33;;;10.60;72.60;;;;;;6219496;23;20009;-93
2021/04/23 12:34:14;;;;;;;4.47;3.55;;;10.60;72.50;;;;;;6217845;23;19996;-93
2021/04/23 12:36:48;;;;;;;3.30;3.00;;;10.50;72.70;;;;;;6218890;23;20005;-94
2021/04/23 12:39:34;;;;;;;3.58;2.70;;;10.50;73.00;;;;;;6220963;23;20000;-94
2021/04/23 12:42:07;;;;;;;4.13;2.85;;;10.50;72.80;;;;;;6222813;22;20036;-93
2021/04/23 12:44:39;;;;;;;3.78;3.00;;;10.60;72.70;;;;;;6194440;23;20008;-93
2021/04/23 12:47:13;;;;;;;4.65;3.15;;;10.70;72.30;;;;;;6194000;23;20061;-90
2021/04/23 12:49:46;;;;;;;3.13;2.58;;;10.70;71.90;;;;;;6218147;23;20043;-91
2021/04/23 12:52:25;;;;;;;4.35;3.35;;;10.70;72.00;;;;;;6219518;23;20009;-94
2021/04/23 12:55:03;;;;;;;5.15;3.38;;;10.70;72.10;;;;;;6218745;23;20009;-93
2021/04/23 12:57:32;;;;;;;5.53;4.20;;;10.60;72.50;;;;;;6220394;23;20014;-93
2021/04/23 13:00:18;;;;;;;4.70;3.47;;;10.60;72.90;;;;;;6193673;23;20424;-91
2021/04/23 13:02:55;;;;;;;5.72;3.80;;;10.60;73.30;;;;;;6218860;23;20015;-94
2021/04/23 13:05:26;;;;;;;6.22;3.40;;;10.70;73.00;;;;;;6193205;23;20012;-93
2021/04/23 13:08:17;;;;;;;5.60;3.92;;;10.70;72.60;;;;;;6191922;23;20432;-93
2021/04/23 13:10:46;;;;;;;5.75;4.20;;;10.70;72.50;;;;;;6217362;23;20009;-93
2021/04/23 13:13:27;;;;;;;5.13;3.97;;;10.70;72.60;;;;;;6219841;23;20012;-93
2021/04/23 13:16:04;;;;;;;4.95;3.50;;;10.60;72.70;;;;;;6215684;23;20027;-93
2021/04/23 13:22:30;;;;;;;4.50;3.40;;;10.50;72.50;;;;;;6186535;23;20095;-93
2021/04/23 13:26:01;;;;;;;5.28;4.22;;;10.50;72.40;;;;;;6161181;23;20008;-93
2021/04/23 13:28:30;;;;;;;6.82;3.70;;;10.40;72.50;;;;;;6098361;23;19994;-93
2021/04/23 13:30:58;;;;;;;5.28;3.70;;;10.40;72.70;;;;;;6073306;23;20048;-92
2021/04/23 13:33:34;;;;;;;5.85;3.58;;;10.40;73.00;;;;;;6134283;23;20005;-92
2021/04/23 13:36:33;;;;;;;;;;;;;;;;;;;;;
2021/04/23 13:39:06;;;;;;;5.55;3.70;;;10.30;73.40;;;;;;6145593;23;20079;-92
2021/04/23 13:41:43;;;;;;;7.22;3.75;;;10.40;73.20;;;;;;6135957;23;20009;-91
2021/04/23 13:44:30;;;;;;;4.47;3.85;;;10.40;73.20;;;;;;6161871;23;20009;-92